Tuesday, October 17, 2017, 2:56 PM EDT
Back to Local

KSWF, Newburgh / Stewart

Location: New Windsor, NY, United States Lat: 41.5
Local Time: 2:56 PM EDT (18:56 GMT) Lon: -74.1
Time Zone: US/Eastern Elev: 492 ft

Show me the last for .
Show Coded

Time T Td Feel RH Dir Speed Gust Alt SLP Vis Weather Sky Remarks
2017-10-17 13:45 54 32 - 43 - Calm - 30.29 - 20 CLR None
2017-10-17 12:45 52 34 - 50 - Calm - 30.31 - 20 CLR None
2017-10-17 11:45 48 34 - 57 - Calm - 30.34 - 20 CLR None
2017-10-17 10:45 48 34 - 57 - Calm - 30.34 - 20 CLR None
2017-10-17 09:45 45 37 - 75 - Calm - 30.36 - 20 CLR None
2017-10-17 08:45 37 36 - 93 - Calm - 30.35 - 20 CLR None
2017-10-17 07:45 34 34 - 100 - Calm - 30.34 - 10 CLR None
2017-10-17 06:45 34 34 - 100 - Calm - 30.32 - 10 CLR None
2017-10-17 05:45 34 34 30 100 250° 5 - 30.30 - 10 CLR None
2017-10-17 04:45 36 34 - 93 - Calm - 30.27 - 10 CLR None
2017-10-17 03:45 37 34 - 86 - Calm - 30.27 - 10 CLR None
2017-10-17 02:45 36 34 - 93 - Calm - 30.25 - 10 CLR None
2017-10-17 01:45 39 34 - 80 - Calm - 30.25 - 10 SCT040 None
2017-10-17 00:45 39 34 36 80 300° 5 - 30.23 - 10 SCT040 None
2017-10-16 23:45 41 34 35 75 300° 10 - 30.22 - 10 CLR None
2017-10-16 22:45 43 34 36 70 330° 13 - 30.21 - 10 CLR None
2017-10-16 21:45 45 34 40 65 330° 9 - 30.21 - 10 CLR None
2017-10-16 20:45 46 36 40 65 330° 14 - 30.19 - 10 CLR None
2017-10-16 19:45 48 37 41 66 320° 9 23 30.16 - 10 BKN070 None
2017-10-16 18:45 50 39 45 66 310° 14 - 30.12 - 10 SCT050 None
2017-10-16 17:45 52 37 - 57 320° 14 - 30.09 - 20 SCT050 None
2017-10-16 16:45 54 41 - 62 320° 14 - 30.07 - 20 SCT040 BKN080 None
2017-10-16 15:45 54 41 - 62 320° 17 24 30.07 - 20 BKN040 None

Support USWX by starting your Amazon purchase here.